Time;durP1;ratioP1;P1;durP2;ratioP2;P2;SDS_P1;SDS_P2;PMS_P1;PMS_P2;Temp;Humidity;BMP_temperature;BMP_pressure;BME280_temperature;BME280_humidity;BME280_pressure;Samples;Min_cycle;Max_cycle;Signal;HPM_P1;HPM_P2
2021/09/29 00:00:09;;;;;;;6.35;1.98;;;21.40;59.80;;;;;;4139526;28;20134;-50
2021/09/29 00:02:11;;;;;;;4.93;2.42;;;21.30;59.80;;;;;;4141996;28;20059;-53
2021/09/29 00:04:14;;;;;;;4.53;2.50;;;21.40;60.20;;;;;;4122090;28;20052;-57
2021/09/29 00:06:16;;;;;;;4.85;2.17;;;21.40;60.60;;;;;;4138786;28;20068;-57
2021/09/29 00:08:18;;;;;;;4.82;2.33;;;21.40;61.00;;;;;;4123578;28;20048;-54
2021/09/29 00:10:21;;;;;;;4.47;2.40;;;21.40;61.10;;;;;;4140861;28;20112;-54
2021/09/29 00:12:23;;;;;;;3.53;2.13;;;21.50;61.10;;;;;;4141482;28;20044;-55
2021/09/29 00:14:26;;;;;;;5.25;2.20;;;21.50;61.10;;;;;;4124748;28;20110;-57
2021/09/29 00:16:28;;;;;;;5.72;2.30;;;21.50;60.90;;;;;;4126066;28;22246;-52
2021/09/29 00:18:30;;;;;;;9.83;2.57;;;21.60;60.70;;;;;;4139386;28;20421;-55
2021/09/29 00:20:33;;;;;;;4.70;2.40;;;21.60;60.70;;;;;;4138408;28;20052;-57
2021/09/29 00:22:35;;;;;;;5.57;2.20;;;21.60;60.60;;;;;;4140612;28;20084;-51
2021/09/29 00:24:38;;;;;;;7.50;2.63;;;21.70;61.50;;;;;;4123939;28;20083;-56
2021/09/29 00:26:40;;;;;;;4.45;2.30;;;21.70;60.90;;;;;;4125794;28;20314;-53
2021/09/29 00:28:42;;;;;;;6.70;1.92;;;21.70;60.80;;;;;;4138219;28;20106;-56
2021/09/29 00:30:51;;;;;;;5.07;2.17;;;21.70;60.70;;;;;;4138606;28;20056;-51
2021/09/29 00:32:53;;;;;;;6.00;2.08;;;21.70;60.60;;;;;;4138307;28;20063;-56
2021/09/29 00:34:56;;;;;;;4.10;2.33;;;21.80;60.20;;;;;;4124499;28;20049;-56
2021/09/29 00:36:58;;;;;;;5.75;2.08;;;21.80;60.50;;;;;;4138280;28;20308;-56
2021/09/29 00:39:00;;;;;;;4.90;2.30;;;21.80;60.50;;;;;;4141919;28;20056;-55
2021/09/29 00:41:03;;;;;;;3.47;2.27;;;21.80;60.40;;;;;;4143073;28;20158;-54
2021/09/29 00:43:05;;;;;;;4.60;2.20;;;21.90;60.50;;;;;;4141940;28;20052;-57
2021/09/29 00:45:08;;;;;;;6.13;2.28;;;21.90;61.10;;;;;;4142552;28;20055;-50
2021/09/29 00:47:11;;;;;;;3.85;2.42;;;21.90;60.40;;;;;;4122285;28;20898;-54
2021/09/29 00:49:13;;;;;;;4.38;2.15;;;21.90;60.40;;;;;;4145336;28;20104;-57
2021/09/29 00:51:15;;;;;;;4.40;2.13;;;21.90;60.20;;;;;;4125636;28;20083;-52
2021/09/29 00:53:19;;;;;;;7.93;2.60;;;22.00;60.20;;;;;;4120649;28;20227;-51
2021/09/29 00:55:22;;;;;;;4.43;2.47;;;22.00;60.20;;;;;;4122147;28;20056;-57
2021/09/29 00:57:25;;;;;;;3.72;1.98;;;22.00;60.20;;;;;;4144652;28;20056;-54
2021/09/29 00:59:27;;;;;;;4.50;2.20;;;22.00;60.10;;;;;;4111199;28;20067;-53
2021/09/29 01:01:30;;;;;;;6.45;2.30;;;22.00;60.00;;;;;;4125253;28;20529;-53
2021/09/29 01:03:33;;;;;;;4.43;2.20;;;22.10;60.10;;;;;;4127201;28;20139;-52
2021/09/29 01:05:38;;;;;;;6.47;2.60;;;22.10;60.00;;;;;;4125625;28;20056;-53
2021/09/29 01:07:46;;;;;;;6.18;2.28;;;22.10;59.70;;;;;;4124566;28;20048;-54
2021/09/29 01:10:06;;;;;;;3.50;2.10;;;22.10;59.70;;;;;;4146596;28;20056;-55
2021/09/29 01:12:29;;;;;;;4.85;2.50;;;22.10;59.70;;;;;;4144795;28;20056;-49
2021/09/29 01:15:07;;;;;;;3.90;2.10;;;22.10;59.70;;;;;;4127010;28;20103;-58
2021/09/29 01:17:12;;;;;;;3.42;2.35;;;22.10;59.70;;;;;;4125973;28;20048;-54
2021/09/29 01:19:50;;;;;;;3.17;2.35;;;22.20;59.70;;;;;;4143085;28;20052;-51
2021/09/29 01:22:01;;;;;;;5.63;2.38;;;22.20;59.70;;;;;;4094386;28;20052;-57
2021/09/29 01:24:19;;;;;;;5.55;2.72;;;22.20;59.70;;;;;;4177461;28;20125;-55
2021/09/29 01:26:29;;;;;;;7.20;2.70;;;22.20;59.20;;;;;;4169430;28;20041;-60
2021/09/29 01:28:36;;;;;;;6.93;2.70;;;22.20;59.00;;;;;;4183962;28;20690;-60
2021/09/29 01:30:39;;;;;;;4.03;2.15;;;22.20;58.90;;;;;;4149568;28;20076;-57
2021/09/29 01:32:42;;;;;;;4.13;2.72;;;22.20;58.80;;;;;;4122185;28;20699;-63
2021/09/29 01:34:45;;;;;;;6.07;2.78;;;22.20;59.00;;;;;;4184664;28;20061;-63
2021/09/29 01:36:48;;;;;;;5.20;2.70;;;22.20;59.00;;;;;;4177229;28;20054;-52
2021/09/29 01:38:57;;;;;;;8.52;2.92;;;22.20;58.70;;;;;;4162626;28;20510;-59
2021/09/29 01:40:59;;;;;;;6.15;2.58;;;22.20;58.60;;;;;;4184084;28;20052;-57
2021/09/29 01:43:01;;;;;;;14.52;3.05;;;22.20;58.60;;;;;;4178725;28;20056;-51
2021/09/29 01:45:04;;;;;;;6.50;3.00;;;22.20;58.60;;;;;;4168667;28;20137;-56
2021/09/29 01:47:07;;;;;;;5.55;2.53;;;22.20;58.80;;;;;;4181461;28;20048;-56
2021/09/29 01:49:09;;;;;;;6.10;2.95;;;22.20;58.80;;;;;;4180503;28;20079;-51
2021/09/29 01:51:13;;;;;;;6.45;2.53;;;22.20;58.80;;;;;;4186047;28;20180;-58
2021/09/29 01:53:18;;;;;;;5.35;2.83;;;22.20;58.80;;;;;;4179896;28;20040;-57
2021/09/29 01:55:21;;;;;;;3.97;2.72;;;22.20;58.80;;;;;;4187976;28;20071;-61
2021/09/29 01:57:23;;;;;;;22.80;3.38;;;22.20;58.80;;;;;;4162233;28;20102;-59
2021/09/29 01:59:26;;;;;;;13.88;3.33;;;22.20;58.90;;;;;;4183602;28;20142;-59
2021/09/29 02:02:14;;;;;;;18.98;3.33;;;22.20;58.50;;;;;;4187632;27;20434;-60
2021/09/29 02:04:20;;;;;;;13.93;3.13;;;22.20;59.20;;;;;;4180057;28;20132;-53
2021/09/29 02:06:22;;;;;;;15.90;3.80;;;22.20;59.30;;;;;;4189567;28;20048;-57
2021/09/29 02:08:24;;;;;;;13.27;2.75;;;22.20;59.50;;;;;;4189238;28;20048;-54
2021/09/29 02:10:26;;;;;;;6.47;2.80;;;22.20;59.20;;;;;;4190675;28;20059;-57
2021/09/29 02:12:29;;;;;;;11.32;3.13;;;22.20;59.00;;;;;;4192587;28;20097;-56
2021/09/29 02:14:31;;;;;;;11.68;2.42;;;22.20;58.90;;;;;;4190334;28;20052;-56
2021/09/29 02:16:33;;;;;;;7.28;3.05;;;22.20;58.80;;;;;;4184251;28;20556;-50
2021/09/29 02:18:36;;;;;;;10.73;2.70;;;22.20;58.60;;;;;;4188044;28;20045;-56
2021/09/29 02:20:38;;;;;;;6.97;2.65;;;22.20;58.50;;;;;;4190067;28;20044;-52
2021/09/29 02:22:41;;;;;;;6.28;2.60;;;22.20;58.50;;;;;;4191487;28;20052;-54
2021/09/29 02:24:47;;;;;;;5.85;2.40;;;22.20;58.40;;;;;;4190123;28;20078;-53
2021/09/29 02:26:49;;;;;;;10.25;2.78;;;22.20;58.40;;;;;;4191732;28;20097;-52
2021/09/29 02:28:52;;;;;;;9.27;2.70;;;22.20;58.20;;;;;;4188509;28;20048;-56
2021/09/29 02:30:54;;;;;;;6.53;2.83;;;22.20;58.20;;;;;;4193404;28;20146;-51
2021/09/29 02:32:56;;;;;;;21.83;3.55;;;22.20;58.10;;;;;;4189341;28;20119;-50
2021/09/29 02:34:58;;;;;;;7.13;2.55;;;22.20;58.40;;;;;;4182098;28;20121;-49
2021/09/29 02:37:00;;;;;;;11.30;3.40;;;22.20;58.60;;;;;;4183848;28;20175;-53
2021/09/29 02:39:04;;;;;;;8.25;2.33;;;22.20;58.90;;;;;;4182718;28;20044;-49
2021/09/29 02:41:06;;;;;;;8.00;2.60;;;22.20;59.30;;;;;;4188059;28;20048;-53
2021/09/29 02:43:09;;;;;;;7.13;2.80;;;22.20;59.30;;;;;;4178090;28;20055;-49
2021/09/29 02:45:12;;;;;;;8.77;3.10;;;22.20;59.20;;;;;;4180761;28;21264;-52
2021/09/29 02:47:15;;;;;;;8.75;3.58;;;22.20;58.80;;;;;;4183687;28;20438;-49
2021/09/29 02:49:17;;;;;;;7.38;2.70;;;22.20;58.90;;;;;;4185652;28;20063;-53
2021/09/29 02:51:19;;;;;;;7.45;3.00;;;22.20;58.90;;;;;;4188038;28;20131;-53
2021/09/29 02:53:21;;;;;;;6.55;2.72;;;22.20;58.80;;;;;;4168939;28;20059;-49
2021/09/29 02:55:24;;;;;;;5.65;2.67;;;22.20;58.60;;;;;;4141591;28;20047;-53
2021/09/29 02:57:26;;;;;;;7.03;2.80;;;22.20;59.70;;;;;;4140361;28;20169;-53
2021/09/29 02:59:28;;;;;;;4.82;2.97;;;22.20;59.80;;;;;;4142393;28;20054;-53
2021/09/29 03:01:31;;;;;;;8.23;2.70;;;22.20;60.00;;;;;;4139126;28;20118;-52
2021/09/29 03:03:33;;;;;;;7.05;3.13;;;22.20;59.90;;;;;;4142848;28;20083;-56
2021/09/29 03:05:35;;;;;;;9.15;2.92;;;22.20;60.00;;;;;;4143614;28;20069;-58
2021/09/29 03:07:38;;;;;;;7.53;2.95;;;22.20;60.00;;;;;;4139712;28;20048;-55
2021/09/29 03:09:40;;;;;;;7.27;3.17;;;22.20;60.20;;;;;;4139768;28;20442;-54
2021/09/29 03:11:42;;;;;;;6.15;2.92;;;22.30;60.30;;;;;;4139115;28;20146;-58
2021/09/29 03:13:47;;;;;;;10.95;2.90;;;22.30;60.30;;;;;;4128997;28;20075;-54
2021/09/29 03:15:49;;;;;;;5.53;2.60;;;22.30;60.00;;;;;;4126532;28;20110;-53
2021/09/29 03:17:51;;;;;;;5.70;2.47;;;22.30;60.00;;;;;;4127851;28;20048;-53
2021/09/29 03:19:54;;;;;;;4.00;1.92;;;22.30;59.80;;;;;;4127639;28;20265;-53
2021/09/29 03:21:56;;;;;;;5.25;2.05;;;22.30;59.80;;;;;;4128050;28;20052;-56
2021/09/29 03:23:58;;;;;;;3.95;2.22;;;22.30;60.30;;;;;;4126923;28;20216;-58
2021/09/29 03:26:00;;;;;;;2.38;1.52;;;22.30;59.70;;;;;;4126411;28;20045;-57
2021/09/29 03:28:03;;;;;;;3.28;1.77;;;22.30;59.60;;;;;;4130324;28;20146;-54
2021/09/29 03:30:05;;;;;;;6.57;1.70;;;22.40;59.70;;;;;;4132731;28;20045;-59
2021/09/29 03:32:08;;;;;;;1.67;1.13;;;22.40;59.70;;;;;;4127757;28;20041;-58
2021/09/29 03:34:10;;;;;;;4.07;1.65;;;22.40;59.60;;;;;;4130401;28;20070;-61
2021/09/29 03:36:13;;;;;;;4.53;1.70;;;22.30;59.70;;;;;;4129293;28;20067;-60
2021/09/29 03:38:15;;;;;;;3.15;1.58;;;22.40;59.80;;;;;;4130444;28;20045;-61
2021/09/29 03:40:18;;;;;;;5.80;2.40;;;22.40;59.80;;;;;;4129805;28;20053;-63
2021/09/29 03:42:20;;;;;;;4.00;1.73;;;22.40;59.90;;;;;;4134890;28;21243;-64
2021/09/29 03:44:22;;;;;;;2.10;1.30;;;22.40;60.00;;;;;;4133752;28;20033;-64
2021/09/29 03:46:26;;;;;;;2.35;1.75;;;22.40;59.80;;;;;;4132609;28;20048;-66
2021/09/29 03:48:27;;;;;;;;;;;22.40;59.80;;;;;;4135097;28;20055;-65
2021/09/29 03:50:30;;;;;;;3.85;1.80;;;22.40;59.80;;;;;;4134370;28;21337;-66
2021/09/29 03:52:32;;;;;;;2.63;1.75;;;22.40;59.80;;;;;;4134682;28;20045;-67
2021/09/29 03:54:35;;;;;;;2.90;1.87;;;22.40;59.90;;;;;;4133931;28;20117;-64
2021/09/29 03:56:37;;;;;;;2.65;1.45;;;22.40;60.00;;;;;;4134849;28;20060;-64
2021/09/29 03:58:39;;;;;;;3.72;1.83;;;22.50;60.00;;;;;;4129002;28;21493;-67
2021/09/29 04:00:41;;;;;;;4.78;1.98;;;22.40;59.80;;;;;;4123327;28;20523;-64
2021/09/29 04:02:44;;;;;;;3.65;2.03;;;22.50;60.00;;;;;;4127989;28;20056;-64
2021/09/29 04:04:46;;;;;;;2.42;1.80;;;22.50;60.00;;;;;;4129018;28;20044;-64
2021/09/29 04:06:49;;;;;;;2.33;1.70;;;22.50;60.00;;;;;;4128343;28;20063;-63
2021/09/29 04:08:51;;;;;;;4.43;1.70;;;22.50;60.00;;;;;;4130802;28;20212;-66
2021/09/29 04:10:55;;;;;;;1.90;1.50;;;22.50;60.00;;;;;;4129426;28;20099;-70
2021/09/29 04:12:58;;;;;;;3.17;1.83;;;22.50;60.00;;;;;;4127841;28;21394;-65
2021/09/29 04:15:01;;;;;;;1.75;1.40;;;22.50;60.00;;;;;;4130713;28;20072;-67
2021/09/29 04:17:04;;;;;;;2.78;1.80;;;22.50;60.00;;;;;;4124829;28;20049;-69
2021/09/29 04:19:06;;;;;;;3.28;1.90;;;22.50;59.90;;;;;;4127277;28;23016;-68
2021/09/29 04:21:10;;;;;;;3.60;2.00;;;22.50;59.90;;;;;;4133519;28;20059;-69
2021/09/29 04:23:12;;;;;;;3.33;1.85;;;22.50;59.90;;;;;;4125838;28;20040;-67
2021/09/29 04:25:14;;;;;;;3.40;1.92;;;22.50;60.00;;;;;;4130809;28;20457;-66
2021/09/29 04:27:17;;;;;;;2.53;1.70;;;22.50;60.00;;;;;;4130764;28;20141;-69
2021/09/29 04:29:19;;;;;;;3.00;1.67;;;22.50;60.00;;;;;;4129155;28;20056;-68
2021/09/29 04:31:23;;;;;;;3.25;1.75;;;22.50;60.00;;;;;;4127920;28;20854;-66
2021/09/29 04:33:25;;;;;;;3.08;1.73;;;22.50;60.00;;;;;;4129018;28;20663;-64
2021/09/29 04:35:28;;;;;;;4.10;2.08;;;22.50;59.90;;;;;;4127323;28;20078;-66
2021/09/29 04:37:30;;;;;;;4.85;1.70;;;22.50;60.00;;;;;;4124622;28;20048;-66
2021/09/29 04:39:33;;;;;;;3.35;2.00;;;22.50;59.90;;;;;;4124182;28;20053;-67
2021/09/29 04:41:35;;;;;;;6.68;1.90;;;22.50;59.90;;;;;;4129203;28;20448;-64
2021/09/29 04:43:37;;;;;;;3.58;2.00;;;22.50;60.00;;;;;;4130071;28;20521;-65
2021/09/29 04:45:40;;;;;;;3.38;2.00;;;22.50;60.00;;;;;;4127811;28;20091;-64
2021/09/29 04:47:43;;;;;;;2.85;1.83;;;22.50;60.00;;;;;;4126811;28;20055;-66
2021/09/29 04:49:45;;;;;;;4.03;2.22;;;22.50;60.00;;;;;;4127910;28;20057;-67
2021/09/29 04:51:47;;;;;;;3.00;1.90;;;22.50;60.20;;;;;;4125242;28;20056;-65
2021/09/29 04:53:50;;;;;;;3.85;1.85;;;22.50;60.20;;;;;;4126269;28;20317;-64
2021/09/29 04:55:52;;;;;;;4.13;1.75;;;22.60;60.30;;;;;;4119991;28;21039;-66
2021/09/29 04:57:54;;;;;;;3.28;2.15;;;22.50;60.30;;;;;;4127562;28;20056;-65
2021/09/29 04:59:57;;;;;;;4.68;2.20;;;22.50;60.20;;;;;;4127620;28;20053;-72
2021/09/29 05:02:14;;;;;;;6.43;2.22;;;22.60;60.20;;;;;;4137252;27;20416;-66
2021/09/29 05:04:17;;;;;;;4.78;2.00;;;22.60;60.80;;;;;;4135011;28;20056;-64
2021/09/29 05:06:19;;;;;;;5.10;2.20;;;22.60;60.80;;;;;;4137080;28;20920;-64
2021/09/29 05:08:25;;;;;;;6.57;2.00;;;22.60;60.90;;;;;;4133606;28;20411;-68
2021/09/29 05:11:00;;;;;;;3.88;2.10;;;22.60;60.90;;;;;;4137499;28;20106;-65
2021/09/29 05:13:07;;;;;;;5.43;2.28;;;22.60;60.90;;;;;;4135812;28;20076;-67
2021/09/29 05:15:10;;;;;;;4.13;1.85;;;22.60;60.90;;;;;;4132898;28;20155;-65
2021/09/29 05:17:12;;;;;;;4.57;2.15;;;22.60;60.80;;;;;;4133352;28;20045;-63
2021/09/29 05:19:15;;;;;;;4.07;2.00;;;22.60;61.00;;;;;;4139157;28;20059;-61
2021/09/29 05:21:18;;;;;;;4.50;2.30;;;22.60;60.90;;;;;;4134183;28;20063;-64
2021/09/29 05:23:20;;;;;;;3.85;1.90;;;22.60;61.00;;;;;;4136833;28;20048;-65
2021/09/29 05:25:23;;;;;;;3.95;2.10;;;22.60;60.90;;;;;;4137260;28;20067;-64
2021/09/29 05:27:25;;;;;;;4.38;1.95;;;22.60;60.90;;;;;;4137566;28;20084;-62
2021/09/29 05:29:27;;;;;;;3.30;1.98;;;22.60;60.90;;;;;;4136086;28;20179;-62
2021/09/29 05:31:29;;;;;;;4.18;2.25;;;22.60;60.90;;;;;;4137191;28;20074;-63
2021/09/29 05:33:32;;;;;;;3.90;2.08;;;22.60;60.80;;;;;;4137157;28;20060;-64
2021/09/29 05:35:34;;;;;;;6.07;2.25;;;22.60;60.80;;;;;;4137010;28;20083;-62
2021/09/29 05:37:36;;;;;;;4.37;2.20;;;22.60;60.80;;;;;;4137875;28;20044;-67
2021/09/29 05:39:38;;;;;;;4.05;2.05;;;22.60;60.80;;;;;;4124436;28;20366;-65
2021/09/29 05:41:41;;;;;;;5.57;1.88;;;22.60;60.90;;;;;;4124778;28;20124;-64
2021/09/29 05:43:43;;;;;;;3.25;1.80;;;22.60;60.80;;;;;;4170212;28;20147;-59
2021/09/29 05:45:45;;;;;;;6.95;2.38;;;22.60;60.60;;;;;;4164558;28;20099;-59
2021/09/29 05:47:48;;;;;;;4.50;2.60;;;22.60;60.50;;;;;;4164200;28;20173;-62
2021/09/29 05:49:50;;;;;;;4.22;2.20;;;22.60;60.30;;;;;;4167366;28;20420;-60
2021/09/29 05:51:52;;;;;;;3.38;2.22;;;22.60;60.20;;;;;;4166856;28;20052;-66
2021/09/29 05:53:54;;;;;;;3.63;2.20;;;22.60;60.00;;;;;;4164404;28;20049;-62
2021/09/29 05:55:56;;;;;;;4.40;2.45;;;22.60;60.00;;;;;;4169553;28;20056;-61
2021/09/29 05:57:58;;;;;;;3.47;2.17;;;22.60;59.90;;;;;;4167509;28;20068;-62
2021/09/29 06:00:01;;;;;;;3.95;2.20;;;22.60;59.90;;;;;;4162534;28;20052;-63
2021/09/29 06:02:06;;;;;;;3.05;1.80;;;22.50;59.80;;;;;;4163969;28;20049;-62
2021/09/29 06:04:10;;;;;;;5.00;2.42;;;22.50;59.70;;;;;;4166414;28;20163;-62
2021/09/29 06:06:12;;;;;;;4.82;2.08;;;22.50;59.90;;;;;;4168563;28;20152;-62
2021/09/29 06:08:14;;;;;;;4.78;2.35;;;22.50;60.10;;;;;;4161857;28;20041;-60
2021/09/29 06:10:17;;;;;;;6.05;2.40;;;22.50;60.40;;;;;;4167583;28;20055;-61
2021/09/29 06:12:19;;;;;;;4.50;2.40;;;22.50;60.60;;;;;;4154732;28;20716;-60
2021/09/29 06:14:22;;;;;;;3.50;2.42;;;22.50;60.70;;;;;;4154912;28;20154;-59
2021/09/29 06:16:24;;;;;;;6.65;2.50;;;22.50;60.70;;;;;;4155874;28;20060;-59
2021/09/29 06:18:26;;;;;;;3.80;2.20;;;22.50;60.80;;;;;;4157696;28;20064;-60
2021/09/29 06:20:33;;;;;;;3.95;2.20;;;22.50;60.90;;;;;;4160278;28;20060;-60
2021/09/29 06:22:36;;;;;;;3.95;2.10;;;22.50;61.00;;;;;;4159187;28;20060;-60
2021/09/29 06:24:38;;;;;;;3.63;2.20;;;22.50;61.00;;;;;;4160393;28;20041;-60
2021/09/29 06:26:40;;;;;;;7.00;2.30;;;22.60;61.10;;;;;;4163865;28;20156;-60
2021/09/29 06:28:42;;;;;;;4.03;2.45;;;22.60;61.10;;;;;;4159871;28;20045;-59
2021/09/29 06:30:45;;;;;;;4.07;2.22;;;22.60;61.00;;;;;;4159646;28;20800;-60
2021/09/29 06:32:47;;;;;;;8.00;2.23;;;22.60;61.10;;;;;;4156593;28;20053;-59
2021/09/29 06:34:49;;;;;;;5.05;2.33;;;22.60;61.10;;;;;;4161585;28;20717;-61
2021/09/29 06:36:51;;;;;;;4.10;2.25;;;22.60;61.10;;;;;;4158844;28;20045;-60
2021/09/29 06:38:53;;;;;;;5.05;2.53;;;22.60;61.10;;;;;;4165647;28;20048;-61
2021/09/29 06:40:55;;;;;;;4.13;2.25;;;22.60;61.10;;;;;;4158547;28;20045;-61
2021/09/29 06:43:03;;;;;;;5.15;2.70;;;22.60;61.10;;;;;;4157006;28;20154;-60
2021/09/29 06:45:07;;;;;;;6.55;2.30;;;22.70;61.20;;;;;;4161240;28;20049;-60
2021/09/29 06:47:09;;;;;;;4.55;2.15;;;22.60;61.10;;;;;;4158994;28;20052;-59
2021/09/29 06:49:11;;;;;;;4.35;2.17;;;22.70;61.20;;;;;;4163433;28;20060;-61
2021/09/29 06:51:14;;;;;;;4.80;2.20;;;22.70;61.20;;;;;;4158916;28;20150;-60
2021/09/29 06:53:21;;;;;;;3.50;2.20;;;22.70;61.20;;;;;;4162333;28;20110;-61
2021/09/29 06:55:23;;;;;;;4.40;2.40;;;22.70;61.20;;;;;;4159662;28;20049;-61
2021/09/29 06:57:25;;;;;;;4.75;2.33;;;22.70;61.10;;;;;;4160009;28;20049;-63
2021/09/29 06:59:27;;;;;;;4.70;2.35;;;22.70;61.10;;;;;;4160108;28;20896;-64
2021/09/29 07:01:30;;;;;;;6.18;2.80;;;22.70;61.10;;;;;;4155956;28;20052;-66
2021/09/29 07:03:32;;;;;;;7.35;2.30;;;22.70;61.00;;;;;;4146548;28;20052;-47
2021/09/29 07:05:34;;;;;;;7.07;2.88;;;22.70;61.10;;;;;;4154200;28;20080;-56
2021/09/29 07:07:37;;;;;;;4.57;2.70;;;22.70;61.30;;;;;;4158143;28;20136;-51
2021/09/29 07:09:39;;;;;;;12.48;2.90;;;22.70;61.60;;;;;;4114952;28;20124;-59
2021/09/29 07:11:41;;;;;;;8.35;2.78;;;22.70;61.60;;;;;;4104011;28;20625;-58
2021/09/29 07:13:45;;;;;;;5.63;2.92;;;22.70;61.80;;;;;;4103045;28;20053;-59
2021/09/29 07:15:48;;;;;;;6.43;3.17;;;22.70;61.70;;;;;;4101344;28;20041;-59
2021/09/29 07:17:55;;;;;;;8.23;3.92;;;22.70;61.70;;;;;;4103395;28;20688;-61
2021/09/29 07:19:58;;;;;;;53.00;42.53;;;22.70;61.90;;;;;;4091287;28;20076;-59
2021/09/29 07:22:00;;;;;;;272.27;233.80;;;22.70;61.70;;;;;;4107834;28;20080;-62
2021/09/29 07:24:04;;;;;;;278.35;238.32;;;22.70;61.70;;;;;;4099430;28;20071;-67
2021/09/29 07:26:06;;;;;;;248.30;209.98;;;22.70;61.60;;;;;;4103892;28;20461;-66
2021/09/29 07:28:08;;;;;;;244.63;210.40;;;22.70;61.30;;;;;;4113346;28;20228;-61
2021/09/29 07:30:10;;;;;;;293.95;252.98;;;22.70;61.00;;;;;;4106096;28;21597;-60
2021/09/29 07:32:13;;;;;;;341.67;294.45;;;22.70;61.00;;;;;;4111279;28;20049;-60
2021/09/29 07:34:15;;;;;;;343.90;296.67;;;22.70;60.90;;;;;;4111621;28;20045;-61
2021/09/29 07:36:17;;;;;;;462.65;396.52;;;22.70;61.10;;;;;;4111141;28;20052;-61
2021/09/29 07:38:19;;;;;;;484.48;423.45;;;22.60;61.10;;;;;;4110058;28;20737;-61
2021/09/29 07:40:22;;;;;;;487.13;421.00;;;22.60;61.10;;;;;;4108045;28;20049;-61
2021/09/29 07:42:24;;;;;;;494.85;421.23;;;22.60;61.00;;;;;;4109145;28;20849;-61
2021/09/29 07:44:27;;;;;;;507.67;451.38;;;22.60;61.10;;;;;;4110756;28;20049;-61
2021/09/29 07:46:29;;;;;;;515.20;458.50;;;22.60;60.90;;;;;;4107438;28;20068;-61
2021/09/29 07:48:31;;;;;;;522.80;465.33;;;22.60;60.90;;;;;;4108652;28;21863;-61
2021/09/29 07:50:34;;;;;;;543.95;483.42;;;22.60;60.90;;;;;;4105142;28;20111;-61
2021/09/29 07:52:36;;;;;;;555.05;494.75;;;22.60;60.80;;;;;;4106672;28;20049;-61
2021/09/29 07:54:38;;;;;;;561.08;500.25;;;22.60;60.80;;;;;;4105075;28;21407;-61
2021/09/29 07:56:41;;;;;;;588.53;525.17;;;22.60;60.80;;;;;;4101634;28;20063;-61
2021/09/29 07:58:43;;;;;;;582.30;519.17;;;22.60;60.80;;;;;;4103353;28;20843;-61
2021/09/29 08:02:12;;;;;;;585.60;522.22;;;22.50;60.20;;;;;;4160722;27;20524;-61
2021/09/29 08:04:16;;;;;;;588.47;524.97;;;22.50;60.80;;;;;;4161182;28;20048;-61
2021/09/29 08:06:19;;;;;;;587.33;523.90;;;22.50;61.10;;;;;;4159556;28;20048;-61
2021/09/29 08:08:21;;;;;;;569.78;508.20;;;22.50;61.00;;;;;;4148700;28;20050;-61
2021/09/29 08:10:23;;;;;;;575.10;513.20;;;22.50;61.00;;;;;;4159208;28;20259;-61
2021/09/29 08:12:25;;;;;;;573.92;511.88;;;22.50;60.90;;;;;;4153767;28;20063;-61
2021/09/29 08:14:28;;;;;;;561.92;501.27;;;22.50;60.90;;;;;;4154214;28;21056;-61
2021/09/29 08:16:30;;;;;;;573.17;511.17;;;22.50;60.80;;;;;;4154628;28;20048;-61
2021/09/29 08:18:32;;;;;;;563.55;502.38;;;22.40;60.70;;;;;;4157132;28;20056;-61
2021/09/29 08:20:36;;;;;;;546.10;486.38;;;22.40;60.70;;;;;;4156688;28;20059;-61
2021/09/29 08:22:40;;;;;;;547.08;488.05;;;22.40;60.80;;;;;;4155315;28;20478;-61
2021/09/29 08:27:08;;;;;;;527.10;469.20;;;22.40;60.80;;;;;;4154809;28;20050;-61
2021/09/29 08:35:47;;;;;;;492.20;437.95;;;22.30;60.90;;;;;;4159308;28;21701;-61
2021/09/29 08:37:59;;;;;;;476.08;422.58;;;22.30;60.90;;;;;;4159983;28;20043;-61
2021/09/29 08:42:22;;;;;;;468.15;407.20;;;22.20;60.90;;;;;;4165315;28;20139;-61
2021/09/29 08:48:57;;;;;;;442.23;379.95;;;22.20;60.90;;;;;;4158772;28;20599;-61
2021/09/29 08:54:08;;;;;;;432.40;375.42;;;22.10;60.80;;;;;;4155334;28;20056;-61
2021/09/29 08:58:18;;;;;;;375.20;333.93;;;22.10;60.90;;;;;;4155327;28;20048;-62
2021/09/29 09:17:06;;;;;;;289.40;257.52;;;22.10;63.30;;;;;;4146370;28;20172;-61
2021/09/29 09:19:11;;;;;;;280.70;249.95;;;22.10;62.70;;;;;;4147731;28;20969;-62
2021/09/29 09:21:16;;;;;;;275.83;245.43;;;22.10;62.80;;;;;;4124168;28;20076;-62
2021/09/29 09:23:18;;;;;;;262.45;231.98;;;22.10;62.80;;;;;;4141466;28;20094;-63
2021/09/29 09:25:43;;;;;;;250.10;222.60;;;22.20;63.00;;;;;;4143683;28;20052;-62
2021/09/29 09:27:47;;;;;;;241.48;215.18;;;22.20;62.90;;;;;;4141449;28;20048;-62
2021/09/29 09:29:52;;;;;;;229.98;204.82;;;22.20;63.00;;;;;;4140577;28;21643;-64
2021/09/29 09:32:05;;;;;;;223.35;199.05;;;22.20;62.90;;;;;;4142366;28;20043;-63
2021/09/29 09:34:10;;;;;;;217.50;192.27;;;22.20;63.00;;;;;;4143356;28;20310;-62
2021/09/29 09:36:12;;;;;;;209.57;186.95;;;22.20;63.00;;;;;;4145911;28;20052;-62
2021/09/29 09:38:20;;;;;;;200.63;178.90;;;22.20;63.10;;;;;;4143056;28;20052;-60
2021/09/29 09:40:24;;;;;;;173.95;152.75;;;22.20;63.20;;;;;;4145279;28;20068;-60
2021/09/29 09:42:26;;;;;;;174.85;152.95;;;22.20;63.20;;;;;;4143000;28;20048;-61
2021/09/29 09:44:33;;;;;;;167.98;147.40;;;22.20;63.20;;;;;;4141524;28;20076;-60
2021/09/29 09:46:35;;;;;;;156.45;138.85;;;22.20;63.20;;;;;;4144365;28;20059;-60
2021/09/29 09:48:40;;;;;;;136.93;122.43;;;22.30;63.20;;;;;;4145570;28;20052;-59
2021/09/29 09:50:42;;;;;;;121.47;108.38;;;22.20;63.00;;;;;;4146377;28;20181;-60
2021/09/29 09:52:45;;;;;;;120.72;107.55;;;22.30;63.30;;;;;;4140222;28;20044;-63
2021/09/29 09:54:47;;;;;;;116.07;102.88;;;22.30;63.30;;;;;;4138078;28;20059;-61
2021/09/29 09:56:56;;;;;;;117.75;104.97;;;22.30;63.20;;;;;;4141246;28;20044;-62
2021/09/29 09:58:58;;;;;;;119.35;106.32;;;22.30;63.20;;;;;;4136642;28;21225;-61
2021/09/29 10:01:01;;;;;;;112.05;100.18;;;22.30;63.20;;;;;;4137697;28;20455;-61
2021/09/29 10:03:04;;;;;;;109.10;97.33;;;22.30;63.20;;;;;;4141217;28;20059;-63
2021/09/29 10:05:08;;;;;;;109.35;97.47;;;22.30;63.20;;;;;;4141797;28;20470;-63
2021/09/29 10:07:10;;;;;;;107.80;96.03;;;22.30;63.20;;;;;;4139258;28;20507;-61
2021/09/29 10:11:24;;;;;;;92.93;83.15;;;22.30;63.00;;;;;;4146552;28;20055;-60
2021/09/29 10:13:51;;;;;;;99.47;88.57;;;22.30;63.00;;;;;;4143141;28;20140;-62
2021/09/29 10:23:27;;;;;;;85.88;76.85;;;22.40;62.80;;;;;;4141672;28;20052;-60
2021/09/29 10:27:57;;;;;;;83.32;74.53;;;22.40;62.70;;;;;;4140255;28;20065;-61
2021/09/29 10:30:10;;;;;;;80.38;71.57;;;22.40;62.70;;;;;;4141160;28;20052;-66
2021/09/29 10:32:17;;;;;;;83.13;74.07;;;22.40;62.70;;;;;;4139733;28;20760;-61
2021/09/29 10:36:42;;;;;;;76.28;68.25;;;22.40;62.70;;;;;;4140690;28;20059;-63
2021/09/29 10:41:38;;;;;;;74.65;66.55;;;22.40;62.70;;;;;;4139889;28;20049;-68
2021/09/29 10:50:47;;;;;;;68.10;60.88;;;22.40;62.70;;;;;;4142496;28;20072;-70
2021/09/29 10:53:02;;;;;;;67.35;60.03;;;22.40;62.70;;;;;;4138313;28;21406;-64
2021/09/29 11:31:43;;;;;;;49.38;44.08;;;22.40;62.90;;;;;;4103277;28;20075;-63
2021/09/29 11:33:56;;;;;;;50.13;44.80;;;22.40;62.90;;;;;;4075829;28;20418;-59
2021/09/29 11:36:23;;;;;;;47.20;42.25;;;22.40;63.00;;;;;;4071949;28;20054;-58
2021/09/29 12:11:00;;;;;;;26.95;24.15;;;22.30;61.80;;;;;;4072303;28;20057;-60
2021/09/29 12:13:06;;;;;;;25.83;23.25;;;22.30;61.80;;;;;;4065059;28;20035;-61
2021/09/29 12:15:10;;;;;;;21.83;19.40;;;22.30;61.90;;;;;;4058326;28;21402;-62
2021/09/29 12:17:12;;;;;;;20.55;18.30;;;22.30;62.80;;;;;;4062446;28;20116;-62
2021/09/29 12:21:52;;;;;;;17.75;15.90;;;22.30;63.50;;;;;;4063993;28;20573;-64
2021/09/29 12:23:55;;;;;;;19.45;16.50;;;22.30;63.90;;;;;;4046897;28;20062;-66
2021/09/29 12:26:24;;;;;;;21.35;15.52;;;22.30;63.90;;;;;;4064471;28;20049;-74
2021/09/29 12:30:38;;;;;;;17.77;13.82;;;22.30;63.90;;;;;;4065495;28;22312;-66
2021/09/29 12:32:56;;;;;;;15.65;12.63;;;22.30;64.10;;;;;;4064794;28;20050;-69
2021/09/29 12:37:12;;;;;;;15.83;12.37;;;22.30;64.20;;;;;;4098858;28;20060;-69
2021/09/29 12:39:22;;;;;;;13.88;11.73;;;22.30;64.20;;;;;;4094036;28;21000;-68
2021/09/29 12:41:28;;;;;;;13.65;10.98;;;22.30;64.20;;;;;;4067457;28;20517;-69
2021/09/29 12:43:30;;;;;;;12.02;10.13;;;22.30;64.20;;;;;;4065905;28;20567;-69
2021/09/29 12:45:41;;;;;;;13.35;10.10;;;22.30;64.20;;;;;;4099515;28;20053;-67
2021/09/29 12:47:46;;;;;;;13.95;9.57;;;22.30;64.10;;;;;;4063454;28;20150;-68
2021/09/29 12:49:48;;;;;;;9.70;8.50;;;22.30;64.20;;;;;;4066782;28;20142;-68
2021/09/29 12:52:00;;;;;;;9.50;8.50;;;22.20;64.10;;;;;;4069144;28;20172;-69
2021/09/29 12:54:05;;;;;;;10.65;7.82;;;22.20;64.00;;;;;;4067627;28;20046;-68
2021/09/29 12:56:15;;;;;;;10.50;8.55;;;22.20;64.20;;;;;;4067291;28;20184;-67